Time;durP1;ratioP1;P1;durP2;ratioP2;P2;SDS_P1;SDS_P2;PMS_P1;PMS_P2;Temp;Humidity;BMP_temperature;BMP_pressure;BME280_temperature;BME280_humidity;BME280_pressure;Samples;Min_cycle;Max_cycle;Signal;HPM_P1;HPM_P2
2022/03/02 00:03:29;;;;;;;180.83;72.53;;;;;;;-5.73;67.63;100167.84;4386274;79;21058;-89
2022/03/02 00:09:31;;;;;;;181.13;71.83;;;;;;;-5.70;68.22;100155.36;4402349;79;21022;-90
2022/03/02 00:15:36;;;;;;;175.57;72.83;;;;;;;-5.60;68.68;100155.55;4397952;79;21054;-92
2022/03/02 00:21:38;;;;;;;197.22;78.52;;;;;;;-5.59;68.30;100149.14;4408958;79;21018;-91
2022/03/02 00:27:39;;;;;;;200.47;77.37;;;;;;;-5.68;67.98;100138.60;4403331;79;21011;-90
2022/03/02 00:33:41;;;;;;;195.93;77.97;;;;;;;-5.73;68.66;100134.52;4418842;79;21026;-90
2022/03/02 00:39:44;;;;;;;206.70;80.47;;;;;;;-5.77;68.45;100137.39;4418137;79;21031;-90
2022/03/02 00:45:45;;;;;;;200.40;79.07;;;;;;;-5.96;68.04;100125.36;4396228;79;21038;-91
2022/03/02 00:51:48;;;;;;;206.33;77.33;;;;;;;-6.14;68.36;100122.92;4397375;79;21070;-92
2022/03/02 00:57:49;;;;;;;195.97;77.17;;;;;;;-6.20;68.88;100126.52;4384717;79;21384;-91
2022/03/02 01:03:51;;;;;;;202.83;78.17;;;;;;;-6.25;68.77;100117.12;4401350;79;21027;-90
2022/03/02 01:09:52;;;;;;;180.70;72.27;;;;;;;-6.30;69.27;100113.53;4407662;79;20975;-90
2022/03/02 01:16:09;;;;;;;201.50;75.90;;;;;;;-6.33;69.71;100102.84;4406831;79;21450;-91
2022/03/02 01:22:11;;;;;;;218.70;83.97;;;;;;;-6.29;69.72;100098.64;4404175;79;21064;-92
2022/03/02 01:28:13;;;;;;;215.43;81.67;;;;;;;-6.37;69.63;100091.57;4374925;79;21102;-91
2022/03/02 01:34:14;;;;;;;193.17;79.10;;;;;;;-6.43;70.14;100096.50;4363105;79;21051;-91
2022/03/02 01:40:16;;;;;;;195.27;79.07;;;;;;;-6.43;70.44;100089.32;4376855;79;21113;-91
2022/03/02 01:46:20;;;;;;;229.90;95.33;;;;;;;-6.52;70.26;100084.91;4365151;79;21577;-91
2022/03/02 01:52:21;;;;;;;242.67;92.37;;;;;;;-6.52;70.67;100077.44;4353645;79;21986;-90
2022/03/02 01:58:25;;;;;;;213.47;86.20;;;;;;;-6.50;70.40;100071.36;4347123;79;22101;-91
2022/03/02 02:04:27;;;;;;;215.23;86.37;;;;;;;-6.62;70.51;100060.74;4369471;79;21681;-91
2022/03/02 02:10:30;;;;;;;245.30;88.97;;;;;;;-6.64;70.93;100069.48;4348043;79;21071;-93
2022/03/02 02:16:32;;;;;;;216.90;84.90;;;;;;;-6.61;70.81;100066.89;4358331;79;21090;-93
2022/03/02 02:22:46;;;;;;;202.47;78.63;;;;;;;-6.57;71.27;100068.02;4364940;79;21093;-94
2022/03/02 02:28:49;;;;;;;217.80;87.97;;;;;;;-6.46;71.89;100060.50;4369308;79;21121;-91
2022/03/02 02:34:51;;;;;;;223.40;88.20;;;;;;;-6.42;71.35;100065.65;4373981;79;21062;-91
2022/03/02 02:40:53;;;;;;;226.53;91.00;;;;;;;-6.44;71.96;100051.75;4397988;79;20995;-91
2022/03/02 02:46:55;;;;;;;225.73;91.30;;;;;;;-6.41;71.08;100045.13;4392381;79;21014;-91
2022/03/02 02:52:59;;;;;;;219.50;80.13;;;;;;;-6.27;72.29;100046.44;4399724;79;21090;-91
2022/03/02 02:59:02;;;;;;;209.57;82.63;;;;;;;-6.24;72.16;100045.95;4406988;79;21022;-92
2022/03/02 03:05:06;;;;;;;206.37;85.30;;;;;;;-6.23;72.63;100043.05;4363940;79;21403;-92
2022/03/02 03:11:08;;;;;;;220.10;82.67;;;;;;;-6.16;73.34;100041.56;4375143;79;21073;-92
2022/03/02 03:17:10;;;;;;;223.47;82.63;;;;;;;-6.01;73.41;100035.17;4392401;79;22083;-92
2022/03/02 03:23:11;;;;;;;212.80;80.10;;;;;;;-5.83;73.08;100042.91;4405010;79;20998;-92
2022/03/02 03:29:12;;;;;;;205.40;83.77;;;;;;;-5.90;72.87;100039.61;4357813;79;21039;-91
2022/03/02 03:35:17;;;;;;;205.47;79.47;;;;;;;-6.10;72.36;100047.26;4369187;79;21000;-91
2022/03/02 03:41:18;;;;;;;197.60;76.03;;;;;;;-6.15;73.23;100051.20;4360981;79;21075;-92
2022/03/02 03:47:20;;;;;;;214.60;81.00;;;;;;;-6.13;72.98;100039.75;4351443;79;21039;-91
2022/03/02 03:53:21;;;;;;;180.13;72.23;;;;;;;-6.14;72.71;100039.47;4354829;79;21060;-92
2022/03/02 03:59:23;;;;;;;199.60;77.53;;;;;;;-6.02;73.60;100037.53;4341064;79;21031;-92
2022/03/02 04:05:24;;;;;;;185.17;76.00;;;;;;;-6.06;72.92;100029.75;4354159;79;21147;-91
2022/03/02 04:11:26;;;;;;;180.17;73.50;;;;;;;-6.15;73.29;100027.20;4360494;79;21528;-93
2022/03/02 04:17:28;;;;;;;200.07;77.73;;;;;;;-6.23;73.58;100024.94;4369318;79;21054;-92
2022/03/02 04:23:29;;;;;;;188.43;76.53;;;;;;;-6.25;73.23;100019.03;4370402;79;21022;-91
2022/03/02 04:29:31;;;;;;;177.27;70.80;;;;;;;-6.41;73.12;100016.64;4342724;79;21074;-91
2022/03/02 04:35:34;;;;;;;183.10;74.47;;;;;;;-6.53;73.38;100011.91;4346130;79;21007;-91
2022/03/02 04:41:37;;;;;;;186.90;76.83;;;;;;;-6.64;73.15;100011.44;4367734;79;22377;-94
2022/03/02 04:47:39;;;;;;;189.10;74.53;;;;;;;-6.77;73.41;100007.72;4380930;79;21003;-91
2022/03/02 04:53:42;;;;;;;199.27;79.80;;;;;;;-6.78;73.94;100004.25;4377493;79;21118;-92
2022/03/02 04:59:44;;;;;;;196.83;80.50;;;;;;;-6.73;74.05;100002.19;4368347;79;21015;-91
2022/03/02 05:05:46;;;;;;;201.67;76.80;;;;;;;-6.80;73.84;100006.87;4347508;79;21495;-92
2022/03/02 05:11:50;;;;;;;201.60;81.00;;;;;;;-6.87;73.87;100001.69;4369406;79;21026;-91
2022/03/02 05:17:53;;;;;;;195.87;79.53;;;;;;;-6.95;73.90;99994.59;4344772;79;21684;-91
2022/03/02 05:23:57;;;;;;;183.27;78.77;;;;;;;-7.02;74.14;99992.09;4342079;79;21054;-91
2022/03/02 05:30:07;;;;;;;209.80;79.43;;;;;;;-7.07;74.15;99992.50;4355096;79;21058;-92
2022/03/02 05:36:15;;;;;;;191.27;77.13;;;;;;;-7.10;74.48;99991.13;4355273;79;21084;-92
2022/03/02 05:42:19;;;;;;;202.53;77.23;;;;;;;-7.11;74.46;100000.14;4376179;79;21070;-91
2022/03/02 05:48:23;;;;;;;196.83;77.60;;;;;;;-7.12;74.56;99991.88;4360682;79;21091;-92
2022/03/02 05:54:28;;;;;;;195.80;78.17;;;;;;;-7.13;74.75;100000.92;4364694;79;21058;-91
2022/03/02 06:00:30;;;;;;;194.15;78.72;;;;;;;-7.06;75.18;99994.14;4351659;79;21105;-92
2022/03/02 06:06:35;;;;;;;198.67;77.03;;;;;;;-7.00;75.27;100003.28;4355345;79;21540;-92
2022/03/02 06:12:38;;;;;;;186.50;78.65;;;;;;;-6.92;75.65;100005.58;4363504;79;21109;-92
2022/03/02 06:18:43;;;;;;;193.93;78.00;;;;;;;-6.73;76.08;100012.84;4349008;79;21050;-91
2022/03/02 06:24:48;;;;;;;211.53;88.90;;;;;;;-6.31;76.76;100003.47;4372144;79;21044;-92
2022/03/02 06:30:50;;;;;;;213.37;88.87;;;;;;;-5.71;77.04;100007.58;4356466;79;21732;-91
2022/03/02 06:36:52;;;;;;;201.33;85.23;;;;;;;-4.99;77.42;100001.05;4362175;79;21057;-92
2022/03/02 06:43:18;;;;;;;189.60;80.13;;;;;;;-4.32;77.31;100006.30;4368336;79;21042;-93
2022/03/02 06:49:30;;;;;;;176.63;75.07;;;;;;;-3.75;76.76;99995.26;4366232;79;21062;-91
2022/03/02 06:55:32;;;;;;;170.40;71.50;;;;;;;-3.19;76.05;99996.36;4358389;79;21446;-91
2022/03/02 07:01:36;;;;;;;166.03;68.67;;;;;;;-2.95;76.05;99996.20;4363285;79;21055;-91
2022/03/02 07:07:39;;;;;;;171.57;70.37;;;;;;;-3.03;75.14;99996.70;4364198;79;21034;-92
2022/03/02 07:13:46;;;;;;;164.33;70.13;;;;;;;-3.01;75.39;100006.63;4378001;79;21554;-90
2022/03/02 07:19:53;;;;;;;172.23;73.17;;;;;;;-2.90;75.85;100006.94;4334837;79;20995;-90
2022/03/02 07:26:00;;;;;;;181.93;75.70;;;;;;;-2.77;75.72;100006.98;4332025;79;21085;-95
2022/03/02 07:32:04;;;;;;;182.53;79.57;;;;;;;-2.63;75.49;100002.73;4368233;79;21077;-90
2022/03/02 07:38:09;;;;;;;185.87;79.73;;;;;;;-2.45;75.70;99998.20;4374749;79;21876;-90
2022/03/02 07:44:11;;;;;;;172.40;76.17;;;;;;;-2.26;75.79;100004.14;4378489;79;21550;-90
2022/03/02 07:50:13;;;;;;;194.67;83.17;;;;;;;-2.07;75.11;99994.46;4370787;79;21054;-90
2022/03/02 07:56:19;;;;;;;178.00;81.40;;;;;;;-1.72;75.59;99994.45;4372429;79;21065;-88
2022/03/02 08:02:24;;;;;;;177.15;77.35;;;;;;;-1.41;74.85;99990.38;4380486;79;21014;-90
2022/03/02 08:08:26;;;;;;;172.93;73.30;;;;;;;-1.17;74.80;99998.06;4379124;79;21537;-90
2022/03/02 08:14:32;;;;;;;165.63;69.97;;;;;;;-0.34;75.43;99991.20;4382539;79;21084;-91
2022/03/02 08:20:36;;;;;;;144.10;66.30;;;;;;;-0.10;74.13;99980.53;4376612;79;21548;-91
2022/03/02 08:26:40;;;;;;;135.97;57.95;;;;;;;0.56;74.28;99978.84;4378326;79;21062;-90
2022/03/02 08:32:45;;;;;;;126.95;53.87;;;;;;;1.22;72.78;99960.77;4376149;79;21661;-90
2022/03/02 08:38:51;;;;;;;117.62;53.60;;;;;;;1.28;71.69;99973.66;4378514;79;21046;-90
2022/03/02 08:44:54;;;;;;;105.10;45.80;;;;;;;1.70;71.63;99965.48;4374057;80;21068;-93
2022/03/02 08:50:59;;;;;;;89.28;43.42;;;;;;;2.28;70.24;99965.34;4381722;79;21042;-91
2022/03/02 08:57:03;;;;;;;93.00;40.92;;;;;;;2.69;70.21;99956.70;4380538;79;21034;-89
2022/03/02 09:03:06;;;;;;;66.55;32.13;;;;;;;3.30;71.14;99957.64;4383247;79;21098;-93
2022/03/02 09:09:10;;;;;;;62.08;32.05;;;;;;;3.81;69.86;99938.31;4371602;79;20977;-90
2022/03/02 09:15:12;;;;;;;61.83;31.42;;;;;;;4.04;67.93;99931.80;4321263;79;43807;-91
2022/03/02 09:21:22;;;;;;;54.88;29.02;;;;;;;5.11;68.60;99917.70;4280079;81;22171;-90
2022/03/02 09:27:30;;;;;;;61.40;29.15;;;;;;;5.64;67.29;99908.17;4281237;81;21047;-90
2022/03/02 09:33:38;;;;;;;54.95;29.72;;;;;;;6.10;66.65;99905.60;4280060;81;21090;-89
2022/03/02 09:39:43;;;;;;;55.10;28.42;;;;;;;6.68;66.53;99890.51;4285607;81;21095;-89
2022/03/02 09:45:50;;;;;;;52.15;27.90;;;;;;;6.78;65.70;99892.88;4285282;81;20995;-91
2022/03/02 09:52:05;;;;;;;;;;;;;;;7.37;65.09;99887.60;4290167;81;22049;-89
2022/03/02 09:58:12;;;;;;;42.62;23.92;;;;;;;7.75;62.08;99884.94;4280877;81;20157;-90
2022/03/02 10:04:23;;;;;;;45.95;23.77;;;;;;;7.13;54.68;99878.72;4279090;81;21028;-92
2022/03/02 10:10:27;;;;;;;31.52;17.40;;;;;;;7.29;59.59;99868.03;4282752;81;21080;-91
2022/03/02 10:16:30;;;;;;;35.03;20.57;;;;;;;8.34;58.50;99854.69;4281367;81;21119;-91
2022/03/02 10:22:46;;;;;;;30.88;17.85;;;;;;;8.22;58.06;99846.47;4283283;81;21006;-92
2022/03/02 10:29:25;;;;;;;36.88;19.25;;;;;;;8.82;52.09;99828.20;4279718;81;21123;-91
2022/03/02 10:35:30;;;;;;;28.85;18.35;;;;;;;8.51;53.69;99823.90;4285294;81;21741;-89
2022/03/02 10:41:37;;;;;;;30.60;17.67;;;;;;;8.95;54.96;99815.33;4290493;81;21880;-90
2022/03/02 10:48:24;;;;;;;25.32;14.80;;;;;;;8.97;49.91;99802.91;4283416;81;21067;-89
2022/03/02 10:54:27;;;;;;;28.70;16.12;;;;;;;8.98;50.94;99788.13;4272689;81;21116;-89
2022/03/02 11:00:29;;;;;;;24.80;14.43;;;;;;;9.47;51.71;99787.41;4288226;81;21118;-89
2022/03/02 11:06:30;;;;;;;29.07;15.98;;;;;;;9.67;51.36;99770.55;4282388;81;21114;-87
2022/03/02 11:12:32;;;;;;;29.85;15.78;;;;;;;8.84;48.41;99756.87;4291097;81;21040;-89
2022/03/02 11:18:48;;;;;;;26.95;15.43;;;;;;;8.80;48.39;99758.72;4283726;81;21106;-92
2022/03/02 11:24:47;;;;;;;26.45;13.93;;;;;;;8.69;46.74;99740.63;4289421;81;21377;-88
2022/03/02 11:30:59;;;;;;;28.12;16.02;;;;;;;9.02;46.28;99735.77;4277354;81;21920;-91
2022/03/02 11:37:05;;;;;;;23.47;13.62;;;;;;;9.10;46.46;99724.47;4259229;82;21682;-88
2022/03/02 11:43:22;;;;;;;27.05;13.85;;;;;;;9.25;46.83;99705.98;4267772;82;21056;-89
2022/03/02 11:49:52;;;;;;;18.15;11.43;;;;;;;9.27;46.21;99696.87;4267730;82;21063;-94
2022/03/02 11:55:55;;;;;;;17.85;11.15;;;;;;;9.01;45.27;99685.03;4262851;82;22570;-89
2022/03/02 12:01:56;;;;;;;24.00;11.93;;;;;;;8.77;44.24;99679.65;4262825;82;21087;-89
2022/03/02 12:08:11;;;;;;;19.15;10.80;;;;;;;8.33;43.30;99668.38;4268647;82;21122;-90
2022/03/02 12:14:15;;;;;;;21.50;12.55;;;;;;;7.95;42.47;99655.68;4265981;81;21397;-90
2022/03/02 12:20:21;;;;;;;27.77;13.48;;;;;;;7.75;44.19;99651.14;4260696;82;21622;-89
2022/03/02 12:26:22;;;;;;;22.27;13.35;;;;;;;7.57;43.83;99639.66;4268591;82;21062;-89
2022/03/02 12:32:28;;;;;;;30.10;15.23;;;;;;;7.54;44.07;99628.08;4252740;82;21997;-89
2022/03/02 12:38:30;;;;;;;27.02;14.47;;;;;;;7.35;43.43;99627.82;4201945;83;21044;-89
2022/03/02 12:44:35;;;;;;;26.30;13.75;;;;;;;6.70;39.70;99622.42;4238864;83;21615;-89
2022/03/02 12:50:37;;;;;;;26.70;14.23;;;;;;;6.24;42.75;99621.27;4230446;83;21048;-88
2022/03/02 12:56:41;;;;;;;31.97;16.60;;;;;;;6.58;42.57;99605.26;4136091;84;21105;-90
2022/03/02 13:02:52;;;;;;;25.30;14.45;;;;;;;6.46;43.02;99600.55;4140372;84;21078;-89
2022/03/02 13:09:14;;;;;;;33.20;16.35;;;;;;;6.66;42.04;99594.28;4205949;83;21084;-90
2022/03/02 13:15:29;;;;;;;28.05;15.23;;;;;;;6.44;43.12;99585.70;4066270;86;21103;-88
2022/03/02 13:21:35;;;;;;;34.83;16.17;;;;;;;6.32;43.36;99583.16;4205047;83;21040;-89
2022/03/02 13:28:04;;;;;;;31.40;16.15;;;;;;;6.16;43.46;99581.35;4213567;83;21064;-92
2022/03/02 13:34:06;;;;;;;24.92;13.85;;;;;;;6.29;42.63;99574.31;4200623;83;21063;-88
2022/03/02 13:40:09;;;;;;;20.55;11.35;;;;;;;6.07;43.26;99570.56;4137605;84;21530;-91
2022/03/02 13:46:17;;;;;;;19.55;11.57;;;;;;;6.20;43.54;99570.06;4133884;84;21559;-92
2022/03/02 13:52:30;;;;;;;16.87;9.15;;;;;;;6.27;42.60;99561.59;4198656;83;21042;-90
2022/03/02 13:58:34;;;;;;;20.25;11.35;;;;;;;6.17;43.25;99559.27;4194709;83;21070;-91
2022/03/02 14:04:47;;;;;;;20.68;9.63;;;;;;;6.26;43.40;99553.20;4190172;82;21082;-90
2022/03/02 14:10:48;;;;;;;26.55;10.60;;;;;;;6.33;42.01;99558.91;4190595;83;21649;-94
2022/03/02 14:17:07;;;;;;;14.18;8.10;;;;;;;6.19;42.20;99543.98;4199602;83;21133;-89
2022/03/02 14:23:12;;;;;;;16.93;8.80;;;;;;;6.05;42.05;99541.55;4196171;83;21019;-89
2022/03/02 14:29:15;;;;;;;21.07;9.90;;;;;;;5.91;41.06;99543.73;4199376;82;21178;-88
2022/03/02 14:35:25;;;;;;;18.05;9.10;;;;;;;5.73;40.88;99547.64;4238797;82;21106;-89
2022/03/02 14:41:27;;;;;;;17.62;8.95;;;;;;;5.60;41.50;99543.28;4224124;82;21050;-90
2022/03/02 14:47:28;;;;;;;27.82;10.43;;;;;;;5.61;41.72;99546.77;4230701;82;21061;-91
2022/03/02 14:53:35;;;;;;;17.73;9.43;;;;;;;5.57;42.15;99531.72;4238791;82;21042;-91
2022/03/02 14:59:37;;;;;;;21.73;9.13;;;;;;;5.36;42.07;99541.72;4233340;82;21083;-93
2022/03/02 15:06:09;;;;;;;17.32;9.35;;;;;;;5.13;41.63;99524.67;4202517;82;21989;-89
2022/03/02 15:12:10;;;;;;;20.23;9.18;;;;;;;4.87;41.80;99538.91;4220634;82;21072;-91
2022/03/02 15:18:14;;;;;;;16.10;8.48;;;;;;;4.67;41.83;99532.24;4169134;84;21075;-93
2022/03/02 15:24:16;;;;;;;18.30;8.85;;;;;;;4.53;41.75;99525.66;4224765;82;21566;-90
2022/03/02 15:30:17;;;;;;;15.00;7.72;;;;;;;4.40;41.74;99523.92;4244027;82;21121;-90
2022/03/02 15:36:19;;;;;;;18.12;8.55;;;;;;;4.24;41.87;99515.27;4152079;84;21381;-94
2022/03/02 15:42:32;;;;;;;19.00;8.70;;;;;;;4.11;41.75;99520.30;4151856;84;21082;-89
2022/03/02 15:48:35;;;;;;;21.02;8.75;;;;;;;3.94;41.94;99515.69;4234705;82;22361;-89
2022/03/02 15:54:57;;;;;;;18.27;9.23;;;;;;;3.80;42.05;99521.81;4233006;82;21053;-88
2022/03/02 16:01:01;;;;;;;18.87;8.88;;;;;;;3.65;42.24;99519.55;4169359;84;22352;-90
2022/03/02 16:07:03;;;;;;;23.77;10.28;;;;;;;3.48;42.32;99512.76;4238198;82;21061;-89
2022/03/02 16:13:19;;;;;;;14.75;7.80;;;;;;;3.31;42.53;99512.72;4171961;84;21099;-91
2022/03/02 16:19:31;;;;;;;16.42;8.50;;;;;;;3.13;42.71;99511.09;4241130;82;21723;-89
2022/03/02 16:25:30;;;;;;;17.20;8.83;;;;;;;2.94;43.04;99507.27;4245548;82;21113;-90
2022/03/02 16:31:31;;;;;;;17.48;8.15;;;;;;;2.77;43.34;99507.19;4315904;81;21106;-90
2022/03/02 16:37:32;;;;;;;17.73;9.00;;;;;;;2.52;43.33;99512.48;4292595;81;21019;-89
2022/03/02 16:43:34;;;;;;;21.35;9.75;;;;;;;2.28;43.87;99510.66;4291847;81;21044;-90
2022/03/02 16:49:38;;;;;;;25.92;11.60;;;;;;;1.96;44.00;99526.54;4298625;81;21551;-90
2022/03/02 16:55:39;;;;;;;31.80;13.05;;;;;;;1.73;44.44;99517.37;4291436;81;21056;-90
2022/03/02 17:01:41;;;;;;;42.17;16.02;;;;;;;1.38;44.65;99521.63;4289745;81;21030;-91
2022/03/02 17:07:43;;;;;;;63.55;22.25;;;;;;;1.03;45.03;99526.41;4289283;81;21489;-91
2022/03/02 17:13:45;;;;;;;51.70;20.65;;;;;;;0.80;45.37;99520.67;4292384;81;21512;-92
2022/03/02 17:19:48;;;;;;;37.10;16.93;;;;;;;0.51;45.88;99520.11;4164445;81;10000308;-92
2022/03/02 17:25:51;;;;;;;101.10;35.58;;;;;;;0.30;46.36;99510.80;4288846;81;21095;-94
2022/03/02 17:31:52;;;;;;;81.95;29.23;;;;;;;-0.01;46.82;99499.18;4280439;81;21063;-90
2022/03/02 17:37:54;;;;;;;103.05;36.80;;;;;;;-0.24;47.08;99487.98;4284042;81;21044;-92
2022/03/02 17:43:56;;;;;;;104.40;38.00;;;;;;;-0.44;47.97;99502.27;4191034;83;21099;-92
2022/03/02 17:49:58;;;;;;;91.08;33.58;;;;;;;-0.79;49.14;99495.48;4191713;83;21750;-93
2022/03/02 17:55:59;;;;;;;94.05;37.55;;;;;;;-0.79;49.14;99495.48;4193469;83;21136;-93
2022/03/02 18:02:01;;;;;;;76.43;31.50;;;;;;;-0.93;49.50;99491.09;4195775;83;21366;-93
2022/03/02 18:08:03;;;;;;;72.90;29.43;;;;;;;-1.09;50.07;99491.82;4278592;81;21034;-90
2022/03/02 18:14:08;;;;;;;73.03;26.93;;;;;;;-1.23;49.84;99490.91;4186512;83;21122;-93
2022/03/02 18:20:11;;;;;;;58.47;25.30;;;;;;;-1.40;50.54;99490.56;4165729;84;21082;-90
2022/03/02 18:26:28;;;;;;;67.77;26.40;;;;;;;-1.59;51.42;99489.69;4121790;85;21145;-93
2022/03/02 18:32:30;;;;;;;67.30;28.70;;;;;;;-1.70;51.86;99482.81;4118559;83;21760;-89
2022/03/02 18:38:35;;;;;;;65.20;27.13;;;;;;;-1.82;51.80;99481.05;4138484;84;21056;-89
2022/03/02 18:44:39;;;;;;;53.77;23.20;;;;;;;-1.94;52.30;99496.70;4125409;84;21127;-90
2022/03/02 18:50:40;;;;;;;61.80;26.70;;;;;;;-2.00;53.49;99484.42;4265057;81;21020;-90
2022/03/02 18:56:44;;;;;;;79.77;34.67;;;;;;;-1.94;54.62;99479.27;4261639;82;21074;-91
2022/03/02 19:02:46;;;;;;;85.30;34.17;;;;;;;-1.99;54.21;99477.44;4260869;81;21079;-91
2022/03/02 19:08:48;;;;;;;84.00;33.90;;;;;;;-2.11;54.26;99477.00;4261861;82;21531;-90
2022/03/02 19:14:51;;;;;;;70.47;29.63;;;;;;;-2.30;54.56;99471.27;4262656;82;21065;-92
2022/03/02 19:20:54;;;;;;;79.17;33.97;;;;;;;-2.44;55.69;99463.04;4148337;82;9999673;-92
2022/03/02 19:26:56;;;;;;;109.77;38.17;;;;;;;-2.49;55.10;99473.02;4269536;81;21064;-90
2022/03/02 19:32:57;;;;;;;98.07;37.23;;;;;;;-2.52;55.65;99475.69;4273933;81;21048;-91
2022/03/02 19:45:21;;;;;;;89.10;35.37;;;;;;;-2.76;56.65;99476.66;4271905;81;21094;-91
2022/03/02 19:51:24;;;;;;;110.20;40.17;;;;;;;-2.90;56.82;99479.67;4277149;81;21139;-90
2022/03/02 19:57:27;;;;;;;96.83;38.00;;;;;;;-2.94;57.22;99473.28;4224781;81;21579;-90
2022/03/02 20:03:28;;;;;;;109.57;37.73;;;;;;;-3.10;55.30;99474.42;4273734;81;21101;-91
2022/03/02 20:09:33;;;;;;;110.67;42.87;;;;;;;-3.27;56.16;99473.39;4271888;81;21151;-89
2022/03/02 20:15:35;;;;;;;124.47;44.17;;;;;;;-3.34;57.53;99476.39;4279732;81;21565;-89
2022/03/02 20:21:36;;;;;;;133.10;50.53;;;;;;;-3.41;56.67;99478.53;4281712;81;21042;-89
2022/03/02 20:28:00;;;;;;;117.13;45.60;;;;;;;-3.53;58.47;99468.68;4281311;81;21047;-89
2022/03/02 20:34:01;;;;;;;117.90;46.03;;;;;;;-3.41;59.65;99474.52;4248481;81;21064;-89
2022/03/02 20:40:06;;;;;;;152.07;58.23;;;;;;;-3.49;59.95;99474.27;4212904;83;21098;-91
2022/03/02 20:46:08;;;;;;;133.03;51.90;;;;;;;-3.56;59.80;99478.59;4210489;83;21705;-89
2022/03/02 20:52:12;;;;;;;156.73;57.33;;;;;;;-3.65;59.62;99478.86;4229814;83;21096;-90
2022/03/02 20:58:17;;;;;;;150.37;53.57;;;;;;;-3.73;59.09;99475.39;4210008;83;21958;-88
2022/03/02 21:04:18;;;;;;;150.25;57.80;;;;;;;-3.71;58.51;99474.59;4188243;83;22049;-90
2022/03/02 21:10:19;;;;;;;159.30;56.77;;;;;;;-3.65;61.19;99476.73;4216194;83;21086;-89
2022/03/02 21:16:23;;;;;;;139.50;50.57;;;;;;;-3.61;62.08;99467.08;4215048;83;21019;-90
2022/03/02 21:22:24;;;;;;;154.20;58.93;;;;;;;-3.45;60.03;99465.45;4211376;83;21062;-90
2022/03/02 21:28:27;;;;;;;166.40;62.07;;;;;;;-3.39;61.65;99451.50;4212907;83;21038;-88
2022/03/02 21:34:35;;;;;;;163.20;61.13;;;;;;;-3.35;62.93;99460.56;4236780;82;21657;-89
2022/03/02 21:40:35;;;;;;;173.63;63.97;;;;;;;-3.20;63.71;99457.85;4277088;81;21063;-94
2022/03/02 21:46:36;;;;;;;202.90;78.00;;;;;;;-3.01;63.93;99466.06;4280808;81;21047;-88
2022/03/02 21:52:38;;;;;;;201.23;78.23;;;;;;;-2.94;63.60;99462.56;4281099;81;21839;-88
2022/03/02 21:58:41;;;;;;;203.37;77.10;;;;;;;-2.86;63.84;99458.75;4278758;81;21113;-89
2022/03/02 22:04:43;;;;;;;189.33;71.47;;;;;;;-2.73;64.13;99444.75;4280409;81;21036;-88
2022/03/02 22:10:44;;;;;;;209.43;82.00;;;;;;;-2.66;62.62;99444.45;4282092;81;21060;-90
2022/03/02 22:16:46;;;;;;;210.30;80.70;;;;;;;-2.70;64.18;99447.41;4277974;81;21565;-88
2022/03/02 22:22:47;;;;;;;183.07;72.40;;;;;;;-2.71;64.53;99445.25;4278659;81;21087;-88
2022/03/02 22:28:49;;;;;;;184.30;72.63;;;;;;;-2.67;63.55;99435.59;4281269;81;21566;-90
2022/03/02 22:34:57;;;;;;;205.20;78.57;;;;;;;-2.69;64.78;99432.95;4277771;82;21024;-88
2022/03/02 22:40:55;;;;;;;202.97;77.43;;;;;;;-2.75;64.78;99429.48;4266008;82;21076;-89
2022/03/02 22:46:57;;;;;;;203.00;82.00;;;;;;;-2.72;65.00;99432.13;4268285;82;21080;-89
2022/03/02 22:53:05;;;;;;;222.37;85.43;;;;;;;-2.70;64.99;99424.09;4272457;82;21083;-88
2022/03/02 22:59:12;;;;;;;204.57;78.40;;;;;;;-2.69;65.42;99415.53;4266781;81;21062;-89
2022/03/02 23:17:57;;;;;;;211.67;80.80;;;;;;;-3.13;65.95;99421.41;4270698;81;21707;-89
2022/03/02 23:23:58;;;;;;;182.87;72.87;;;;;;;-3.06;66.15;99417.34;4270820;82;21107;-90
2022/03/02 23:30:00;;;;;;;201.17;76.60;;;;;;;-3.10;64.38;99416.28;4268899;81;21032;-92
2022/03/02 23:36:02;;;;;;;200.43;78.43;;;;;;;-3.09;66.66;99417.09;4283294;80;21056;-90
2022/03/02 23:42:04;;;;;;;204.53;80.20;;;;;;;-3.00;67.01;99406.86;4288529;81;21044;-90
2022/03/02 23:48:07;;;;;;;183.53;72.57;;;;;;;-2.95;66.66;99409.52;4289608;81;21114;-89
2022/03/02 23:54:13;;;;;;;189.47;75.73;;;;;;;-3.04;65.43;99396.45;4290747;81;21055;-90
